Kezdőlap
METAR-TAF:

METAR-TAF

Repülőterek :

Bulawayo, Zimbabwe

földrajzi szélesség: 20-01S, földrajzi hosszúság: 028-37E, magasság: 1326 m

Jelenlegi meteorológiai megfigyelések

A jelentés 13 órával és 23 perccel ezelõtt készült, 17:00 UTC
Észak-északkeleti szél 5 kt
Hőmérséklet 23°C
Páratartalom 25%
Légköri nyomás 1024 hPa
Látótávolság 10 km, vagy több
felhőtlen 1500 m magasságban, és nincs gomolyfelhõ

METAR: FVBU 151700Z 02005KT CAVOK 23/02 Q1024 NOSIG

Idő: 08:23 (06:23 UTC)

Előrejelzés

A jelentés 2 órával és 23 perccel ezelõtt készült, 04:00 UTC
Az előrejelzés 16-én 06 óra UTC és 17-én 12 óra UTC között érvényes
Észak-északkeleti szél 6 kt
Látótávolság 10 km, vagy több
felhőtlen 1500 m magasságban, és nincs gomolyfelhõ
16-én 17 óra UTC és 16-én 19 óra UTC között fokozatosan kialakuló
Különbözõ irányokból fújó szél 5 kt

TAF: FVBU 160400Z 1606/1712 02006KT CAVOK BECMG 1617/1619 VRB05KT

Meteorológiai megfigyelések és előrejelzések több, mint 4000 repülőtéren (METAR és TAF jelentéseket).

A térképen piros és sárga pontok jelzik az elérhető meteorológiai állomásokat.

Mozgassa az egeret a pont fölött, hogy megjelenjen az állomás neve.

Azután kattintson az időjárási megfigyelések és előrejelzések megtekintéséhez.

A térkép megváltoztatása: kattintson a fekete keresztel jelölt zöld gombra ráközelítéshez, a vonallal jelölt zöld gombra távolításhoz, vagy a zöld nyilakra a szomszédos térképek eléréséhez.


METAR-TAF: